createdAt,value
2017-05-05T00:00:49.961Z,7.40
2017-05-05T00:03:18.096Z,7.30
2017-05-05T00:05:45.853Z,7.20
2017-05-05T00:08:12.844Z,7.30
2017-05-05T00:10:40.959Z,7.30
2017-05-05T00:13:07.975Z,7.30
2017-05-05T00:15:35.020Z,7.30
2017-05-05T00:18:02.436Z,7.30
2017-05-05T00:20:29.439Z,7.30
2017-05-05T00:22:56.476Z,7.20
2017-05-05T00:25:23.876Z,7.20
2017-05-05T00:27:50.864Z,7.30
2017-05-05T00:30:18.596Z,7.30
2017-05-05T00:32:46.031Z,7.30
2017-05-05T00:35:13.057Z,7.30
2017-05-05T00:37:40.053Z,7.30
2017-05-05T00:40:07.385Z,7.40
2017-05-05T00:42:41.412Z,7.40
2017-05-05T00:45:08.871Z,7.30
2017-05-05T00:47:35.879Z,7.30
2017-05-05T00:50:02.903Z,7.40
2017-05-05T00:52:31.036Z,7.30
2017-05-05T00:54:58.050Z,7.30
2017-05-05T00:57:25.061Z,7.20
2017-05-05T00:59:52.492Z,7.30
2017-05-05T01:02:19.533Z,7.40
2017-05-05T01:04:46.581Z,7.40
2017-05-05T01:07:14.349Z,7.40
2017-05-05T01:09:41.389Z,7.40
2017-05-05T01:12:09.314Z,7.40
2017-05-05T01:14:37.446Z,7.40
2017-05-05T01:17:04.488Z,7.40
2017-05-05T01:19:31.529Z,7.40
2017-05-05T01:21:58.990Z,7.40
2017-05-05T01:24:26.010Z,7.40
2017-05-05T01:26:53.095Z,7.40
2017-05-05T01:29:20.443Z,7.40
2017-05-05T01:31:47.495Z,7.30
2017-05-05T01:34:14.504Z,7.30
2017-05-05T01:36:41.789Z,7.40
2017-05-05T01:39:08.812Z,7.30
2017-05-05T01:41:35.828Z,7.30
2017-05-05T01:44:03.135Z,7.30
2017-05-05T01:46:30.145Z,7.30
2017-05-05T01:48:57.200Z,7.40
2017-05-05T01:51:24.500Z,7.40
2017-05-05T01:53:52.288Z,7.20
2017-05-05T01:56:19.285Z,7.20
2017-05-05T01:58:46.740Z,7.20
2017-05-05T02:01:13.816Z,7.20
2017-05-05T02:03:40.831Z,7.20
2017-05-05T02:06:09.032Z,7.30
2017-05-05T02:08:36.052Z,7.30
2017-05-05T02:11:03.051Z,7.30
2017-05-05T02:13:30.398Z,7.40
2017-05-05T02:15:58.112Z,7.40
2017-05-05T02:18:25.112Z,7.40
2017-05-05T02:20:53.259Z,7.30
2017-05-05T02:23:20.249Z,7.30
2017-05-05T02:25:48.989Z,7.40
2017-05-05T02:28:16.356Z,7.40
2017-05-05T02:30:43.388Z,7.40
2017-05-05T02:33:10.404Z,7.30
2017-05-05T02:35:37.801Z,7.30
2017-05-05T02:38:04.849Z,7.30
2017-05-05T02:40:31.867Z,7.40
2017-05-05T02:42:59.236Z,7.30
2017-05-05T02:45:26.229Z,7.40
2017-05-05T02:47:53.968Z,7.40
2017-05-05T02:50:21.323Z,7.40
2017-05-05T02:52:48.305Z,7.40
2017-05-05T02:55:15.380Z,7.50
2017-05-05T02:57:42.877Z,7.50
2017-05-05T03:00:09.876Z,7.40
2017-05-05T03:02:36.904Z,7.50
2017-05-05T03:05:04.327Z,7.40
2017-05-05T03:07:31.372Z,7.50
2017-05-05T03:09:58.366Z,7.40
2017-05-05T03:12:25.704Z,7.30
2017-05-05T03:14:53.445Z,7.30
2017-05-05T03:17:20.465Z,7.40
2017-05-05T03:19:47.839Z,7.50
2017-05-05T03:22:14.833Z,7.50
2017-05-05T03:24:42.541Z,7.40
2017-05-05T03:27:10.007Z,7.50
2017-05-05T03:29:36.998Z,7.50
2017-05-05T03:32:04.009Z,7.50
2017-05-05T03:34:31.461Z,7.50
2017-05-05T03:36:58.476Z,7.40
2017-05-05T03:39:25.529Z,7.40
2017-05-05T03:41:54.036Z,7.40
2017-05-05T03:44:21.051Z,7.50
2017-05-05T03:46:48.037Z,7.50
2017-05-05T03:49:15.391Z,7.60
2017-05-05T03:51:42.381Z,7.50
2017-05-05T03:54:10.123Z,7.40
2017-05-05T03:56:38.265Z,7.50
2017-05-05T03:59:05.265Z,7.60
2017-05-05T04:01:32.367Z,7.60
2017-05-05T04:03:59.733Z,7.50
2017-05-05T04:06:27.510Z,7.50
2017-05-05T04:08:55.276Z,7.60
2017-05-05T04:11:23.431Z,7.50
2017-05-05T04:13:51.224Z,7.50
2017-05-05T04:16:18.992Z,7.40
2017-05-05T04:18:46.423Z,7.50
2017-05-05T04:21:13.460Z,7.50
2017-05-05T04:23:40.491Z,7.70
2017-05-05T04:26:07.868Z,7.60
2017-05-05T04:28:34.867Z,7.60
2017-05-05T04:31:01.902Z,7.60
2017-05-05T04:33:30.018Z,7.60
2017-05-05T04:35:57.043Z,7.70
2017-05-05T04:38:24.033Z,7.70
2017-05-05T04:40:52.136Z,7.50
2017-05-05T04:43:19.166Z,7.60
2017-05-05T04:45:46.175Z,7.60
2017-05-05T04:48:13.548Z,7.60
2017-05-05T04:50:40.575Z,7.70
2017-05-05T04:53:07.647Z,7.70
2017-05-05T04:55:35.079Z,7.70
2017-05-05T04:58:02.133Z,7.70
2017-05-05T05:00:29.188Z,7.80
2017-05-05T05:02:56.655Z,7.70
2017-05-05T05:05:23.695Z,7.80
2017-05-05T05:07:50.736Z,7.80
2017-05-05T05:10:18.199Z,7.70
2017-05-05T05:12:45.232Z,7.80
2017-05-05T05:15:12.258Z,7.80
2017-05-05T05:17:39.681Z,7.90
2017-05-05T05:20:07.452Z,7.80
2017-05-05T05:22:35.292Z,7.80
2017-05-05T05:25:02.766Z,7.90
2017-05-05T05:27:30.518Z,7.70
2017-05-05T05:29:57.544Z,7.80
2017-05-05T05:32:24.900Z,7.80
2017-05-05T05:34:51.921Z,7.90
2017-05-05T05:37:18.960Z,8.00
2017-05-05T05:39:46.359Z,7.90
2017-05-05T05:42:13.383Z,7.90
2017-05-05T05:44:40.419Z,7.90
2017-05-05T05:47:07.920Z,7.90
2017-05-05T05:49:34.957Z,8.00
2017-05-05T05:52:01.968Z,8.00
2017-05-05T05:54:29.383Z,8.00
2017-05-05T05:56:57.298Z,7.90
2017-05-05T05:59:25.124Z,7.90
2017-05-05T06:01:52.503Z,8.00
2017-05-05T06:04:19.595Z,8.00
2017-05-05T06:06:46.613Z,8.00
2017-05-05T06:09:14.030Z,8.00
2017-05-05T06:11:41.040Z,8.00
2017-05-05T06:14:08.100Z,8.00
2017-05-05T06:16:36.312Z,8.00
2017-05-05T06:19:03.362Z,8.00
2017-05-05T06:21:31.204Z,7.90
2017-05-05T06:23:58.672Z,7.90
2017-05-05T06:26:25.654Z,7.90
2017-05-05T06:28:52.710Z,7.90
2017-05-05T06:31:20.120Z,7.90
2017-05-05T06:33:47.202Z,8.00
2017-05-05T06:36:14.228Z,8.00
2017-05-05T06:38:41.688Z,8.10
2017-05-05T06:41:09.468Z,8.00
2017-05-05T06:43:36.684Z,8.10
2017-05-05T06:46:04.261Z,8.00
2017-05-05T06:48:31.329Z,8.00
2017-05-05T06:50:58.355Z,8.10
2017-05-05T06:53:26.393Z,8.10
2017-05-05T06:55:53.429Z,8.20
2017-05-05T06:58:20.476Z,8.20
2017-05-05T07:00:47.975Z,8.20
2017-05-05T07:03:14.989Z,8.20
2017-05-05T07:05:42.031Z,8.30
2017-05-05T07:08:09.427Z,8.20
2017-05-05T07:10:36.440Z,8.30
2017-05-05T07:13:03.496Z,8.20
2017-05-05T07:15:30.881Z,8.20
2017-05-05T07:17:57.941Z,8.20
2017-05-05T07:20:24.967Z,8.30
2017-05-05T07:22:53.052Z,8.20
2017-05-05T07:25:20.817Z,8.20
2017-05-05T07:27:47.868Z,8.30
2017-05-05T07:30:15.314Z,8.20
2017-05-05T07:32:43.109Z,8.30
2017-05-05T07:35:10.171Z,8.30
2017-05-05T07:37:37.549Z,8.40
2017-05-05T07:40:04.588Z,8.40
2017-05-05T07:42:31.613Z,8.40
2017-05-05T07:44:59.142Z,8.40
2017-05-05T07:47:26.922Z,8.40
2017-05-05T07:49:53.965Z,8.30
2017-05-05T07:52:21.383Z,8.40
2017-05-05T07:54:48.639Z,8.40
2017-05-05T07:57:15.673Z,8.20
2017-05-05T07:59:42.809Z,8.30
2017-05-05T08:02:09.830Z,8.30
2017-05-05T08:04:36.856Z,8.40
2017-05-05T08:07:04.292Z,8.40
2017-05-05T08:09:31.359Z,8.40
2017-05-05T08:11:58.398Z,8.30
2017-05-05T08:14:25.443Z,8.30
2017-05-05T08:16:52.569Z,8.30
2017-05-05T08:19:19.970Z,8.30
2017-05-05T08:21:47.737Z,8.30
2017-05-05T08:24:14.814Z,8.40
2017-05-05T08:26:41.849Z,8.30
2017-05-05T08:29:08.919Z,8.40
2017-05-05T08:31:36.436Z,8.30
2017-05-05T08:34:04.213Z,8.30
2017-05-05T08:36:31.280Z,8.40
2017-05-05T08:38:58.340Z,8.40
2017-05-05T08:41:33.942Z,8.40
2017-05-05T08:44:02.111Z,8.50
2017-05-05T08:46:29.088Z,8.60
2017-05-05T08:48:56.102Z,8.60
2017-05-05T08:51:23.868Z,8.50
2017-05-05T08:53:51.641Z,8.50
2017-05-05T08:56:19.904Z,8.50
2017-05-05T08:58:46.940Z,8.60
2017-05-05T09:01:13.969Z,8.60
2017-05-05T09:03:40.985Z,8.60
2017-05-05T09:06:08.004Z,8.70
2017-05-05T09:08:36.164Z,8.60
2017-05-05T09:11:03.174Z,8.60
2017-05-05T09:13:30.359Z,8.70
2017-05-05T09:15:58.226Z,8.70
2017-05-05T09:18:25.261Z,8.80
2017-05-05T09:20:52.726Z,8.80
2017-05-05T09:23:19.733Z,8.60
2017-05-05T09:25:46.747Z,8.50
2017-05-05T09:28:14.533Z,8.50
2017-05-05T09:30:41.551Z,8.60
2017-05-05T09:33:08.948Z,8.70
2017-05-05T09:35:35.956Z,8.70
2017-05-05T09:38:03.717Z,8.60
2017-05-05T09:40:31.494Z,8.60
2017-05-05T09:42:58.501Z,8.70
2017-05-05T09:45:26.075Z,8.70
2017-05-05T09:47:53.832Z,8.70
2017-05-05T09:50:20.858Z,8.80
2017-05-05T09:52:47.911Z,8.80
2017-05-05T09:55:14.924Z,9.00
2017-05-05T09:57:42.347Z,9.00
2017-05-05T10:00:10.108Z,8.90
2017-05-05T10:02:37.896Z,8.70
2017-05-05T10:05:04.949Z,8.80
2017-05-05T10:07:32.013Z,8.90
2017-05-05T10:10:06.372Z,8.90
2017-05-05T10:12:33.459Z,8.80
2017-05-05T10:15:00.504Z,8.90
2017-05-05T10:17:28.269Z,8.90
2017-05-05T10:19:56.033Z,8.90
2017-05-05T10:22:24.188Z,8.80
2017-05-05T10:24:52.185Z,9.00
2017-05-05T10:27:19.912Z,8.90
2017-05-05T10:29:46.928Z,8.90
2017-05-05T10:32:13.926Z,8.90
2017-05-05T10:34:41.331Z,8.90
2017-05-05T10:37:08.392Z,9.00
2017-05-05T10:39:35.417Z,9.00
2017-05-05T10:42:02.464Z,8.90
2017-05-05T10:44:29.474Z,8.90
2017-05-05T10:46:56.852Z,8.90
2017-05-05T10:49:23.857Z,9.10
2017-05-05T10:51:51.759Z,9.10
2017-05-05T10:54:18.812Z,9.10
2017-05-05T10:56:45.917Z,9.10
2017-05-05T10:59:13.346Z,9.20
2017-05-05T11:01:40.426Z,9.00
2017-05-05T11:04:07.514Z,9.10
2017-05-05T11:06:34.578Z,9.10
2017-05-05T11:09:01.627Z,9.10
2017-05-05T11:11:29.024Z,9.20
2017-05-05T11:13:56.126Z,9.20
2017-05-05T11:16:23.140Z,9.20
2017-05-05T11:18:50.296Z,9.20
2017-05-05T11:21:17.321Z,9.30
2017-05-05T11:23:44.836Z,9.50
2017-05-05T11:26:12.640Z,9.50
2017-05-05T11:28:39.695Z,9.60
2017-05-05T11:31:06.747Z,9.50
2017-05-05T11:33:33.819Z,9.60
2017-05-05T11:36:00.895Z,9.50
2017-05-05T11:38:29.062Z,9.10
2017-05-05T11:40:56.888Z,9.20
2017-05-05T11:43:23.919Z,9.30
2017-05-05T11:45:50.940Z,9.20
2017-05-05T11:48:18.695Z,9.30
2017-05-05T11:50:46.839Z,9.40
2017-05-05T11:53:13.890Z,9.60
2017-05-05T11:55:41.648Z,9.50
2017-05-05T11:58:09.772Z,9.70
2017-05-05T12:00:36.850Z,9.60
2017-05-05T12:03:04.260Z,9.60
2017-05-05T12:05:31.306Z,9.50
2017-05-05T12:07:58.356Z,9.60
2017-05-05T12:10:26.209Z,9.50
2017-05-05T12:12:53.238Z,9.50
2017-05-05T12:15:20.299Z,9.50
2017-05-05T12:17:47.304Z,9.60
2017-05-05T12:20:14.867Z,9.60
2017-05-05T12:22:42.660Z,9.60
2017-05-05T12:25:10.436Z,9.70
2017-05-05T12:27:37.506Z,9.60
2017-05-05T12:30:05.032Z,9.60
2017-05-05T12:32:32.445Z,9.70
2017-05-05T12:34:59.471Z,9.70
2017-05-05T12:37:26.513Z,9.70
2017-05-05T12:39:53.560Z,9.90
2017-05-05T12:42:20.587Z,9.90
2017-05-05T12:44:48.076Z,9.90
2017-05-05T12:47:15.094Z,9.90
2017-05-05T12:49:42.121Z,9.90
2017-05-05T12:52:09.169Z,10.00
2017-05-05T12:54:36.207Z,10.20
2017-05-05T12:57:04.345Z,10.00
2017-05-05T12:59:31.680Z,10.00
2017-05-05T13:01:58.687Z,10.10
2017-05-05T13:04:25.739Z,10.10
2017-05-05T13:06:52.817Z,10.10
2017-05-05T13:09:19.844Z,10.20
2017-05-05T13:11:46.905Z,10.20
2017-05-05T13:14:14.409Z,10.10
2017-05-05T13:16:42.183Z,10.10
2017-05-05T13:19:09.940Z,10.00
2017-05-05T13:21:36.974Z,10.00
2017-05-05T13:24:04.017Z,10.00
2017-05-05T13:26:31.461Z,10.00
2017-05-05T13:28:58.532Z,10.10
2017-05-05T13:31:26.337Z,10.00
2017-05-05T13:33:53.409Z,10.00
2017-05-05T13:36:20.449Z,10.10
2017-05-05T13:38:47.919Z,10.00
2017-05-05T13:41:14.914Z,10.00
2017-05-05T13:43:42.688Z,10.10
2017-05-05T13:46:09.693Z,10.20
2017-05-05T13:48:36.692Z,10.20
2017-05-05T13:51:04.213Z,10.10
2017-05-05T13:53:31.989Z,10.20
2017-05-05T13:55:59.751Z,10.20
2017-05-05T13:58:27.577Z,10.20
2017-05-05T14:00:54.637Z,10.30
2017-05-05T14:03:21.672Z,10.10
2017-05-05T14:05:48.761Z,10.40
2017-05-05T14:08:16.192Z,10.30
2017-05-05T14:10:43.977Z,10.20
2017-05-05T14:13:11.039Z,10.40
2017-05-05T14:15:38.116Z,10.30
2017-05-05T14:18:05.169Z,10.30
2017-05-05T14:20:32.530Z,10.30
2017-05-05T14:22:59.553Z,10.30
2017-05-05T14:25:26.580Z,10.20
2017-05-05T14:27:53.667Z,10.20
2017-05-05T14:30:20.685Z,10.20
2017-05-05T14:32:48.300Z,10.10
2017-05-05T14:35:15.423Z,10.10
2017-05-05T14:37:42.492Z,10.00
2017-05-05T14:40:09.552Z,10.10
2017-05-05T14:42:36.534Z,10.10
2017-05-05T14:45:03.551Z,10.10
2017-05-05T14:47:31.704Z,10.30
2017-05-05T14:49:58.706Z,10.40
2017-05-05T14:52:25.702Z,10.40
2017-05-05T14:54:53.031Z,10.30
2017-05-05T14:57:20.064Z,10.30
2017-05-05T14:59:54.505Z,10.40
2017-05-05T15:02:21.561Z,10.40
2017-05-05T15:04:48.612Z,10.30
2017-05-05T15:07:16.408Z,10.30
2017-05-05T15:09:43.539Z,10.50
2017-05-05T15:12:11.331Z,10.40
2017-05-05T15:14:38.329Z,10.60
2017-05-05T15:17:05.774Z,10.70
2017-05-05T15:19:32.836Z,10.60
2017-05-05T15:21:59.866Z,10.60
2017-05-05T15:24:27.367Z,10.70
2017-05-05T15:26:54.741Z,10.60
2017-05-05T15:29:22.178Z,10.50
2017-05-05T15:31:49.188Z,10.40
2017-05-05T15:34:16.200Z,10.40
2017-05-05T15:36:43.246Z,10.50
2017-05-05T15:39:10.283Z,10.50
2017-05-05T15:41:37.681Z,10.50
2017-05-05T15:44:04.729Z,10.50
2017-05-05T15:46:31.745Z,10.40
2017-05-05T15:48:58.784Z,10.40
2017-05-05T15:51:26.541Z,10.50
2017-05-05T15:53:53.925Z,10.60
2017-05-05T15:56:20.924Z,10.70
2017-05-05T15:58:47.949Z,10.50
2017-05-05T16:01:15.001Z,10.60
2017-05-05T16:03:42.076Z,10.60
2017-05-05T16:06:10.228Z,10.60
2017-05-05T16:08:37.257Z,10.60
2017-05-05T16:11:04.262Z,10.60
2017-05-05T16:13:31.304Z,10.70
2017-05-05T16:15:58.334Z,10.70
2017-05-05T16:18:26.487Z,10.60
2017-05-05T16:20:53.500Z,10.50
2017-05-05T16:23:20.515Z,10.50
2017-05-05T16:25:47.580Z,10.50
2017-05-05T16:28:14.643Z,10.50
2017-05-05T16:30:42.024Z,10.50
2017-05-05T16:33:09.078Z,10.50
2017-05-05T16:35:36.073Z,10.40
2017-05-05T16:38:03.154Z,10.50
2017-05-05T16:40:30.237Z,10.50
2017-05-05T16:42:57.595Z,10.60
2017-05-05T16:45:24.643Z,10.60
2017-05-05T16:47:51.651Z,10.50
2017-05-05T16:50:18.745Z,10.50
2017-05-05T16:52:45.763Z,10.40
2017-05-05T16:55:13.151Z,10.50
2017-05-05T16:57:40.911Z,10.50
2017-05-05T17:00:07.953Z,10.50
2017-05-05T17:02:34.960Z,10.60
2017-05-05T17:05:01.979Z,10.60
2017-05-05T17:07:30.228Z,10.50
2017-05-05T17:09:59.724Z,10.50
2017-05-05T17:12:26.775Z,10.50
2017-05-05T17:14:53.849Z,10.40
2017-05-05T17:17:20.902Z,10.40
2017-05-05T17:19:48.317Z,10.40
2017-05-05T17:22:15.348Z,10.30
2017-05-05T17:24:42.366Z,10.20
2017-05-05T17:27:09.402Z,10.20
2017-05-05T17:29:37.185Z,10.10
2017-05-05T17:32:04.593Z,10.10
2017-05-05T17:34:31.640Z,10.10
2017-05-05T17:36:58.637Z,10.20
2017-05-05T17:39:25.685Z,10.20
2017-05-05T17:41:52.725Z,10.30
2017-05-05T17:44:20.095Z,10.20
2017-05-05T17:46:47.136Z,10.20
2017-05-05T17:49:14.186Z,10.20
2017-05-05T17:51:41.248Z,10.20
2017-05-05T17:54:08.247Z,10.20
2017-05-05T17:56:36.059Z,10.20
2017-05-05T17:59:03.124Z,10.20
2017-05-05T18:01:30.596Z,10.10
2017-05-05T18:03:58.412Z,10.10
2017-05-05T18:06:25.494Z,10.10
2017-05-05T18:08:52.888Z,10.10
2017-05-05T18:11:20.645Z,10.10
2017-05-05T18:13:47.658Z,10.20
2017-05-05T18:16:14.678Z,10.20
2017-05-05T18:18:41.709Z,10.20
2017-05-05T18:21:09.135Z,10.20
2017-05-05T18:23:36.184Z,10.20
2017-05-05T18:26:03.219Z,10.10
2017-05-05T18:28:30.303Z,10.10
2017-05-05T18:30:57.362Z,10.10
2017-05-05T18:33:24.785Z,10.10
2017-05-05T18:35:51.830Z,10.10
2017-05-05T18:38:18.864Z,10.20
2017-05-05T18:40:45.890Z,10.10
2017-05-05T18:43:12.925Z,10.10
2017-05-05T18:45:41.669Z,10.10
2017-05-05T18:48:09.426Z,10.10
2017-05-05T18:50:36.416Z,10.10
2017-05-05T18:53:03.468Z,10.20
2017-05-05T18:55:30.488Z,10.20
2017-05-05T18:57:59.765Z,10.20
2017-05-05T19:00:26.840Z,10.10
2017-05-05T19:02:54.606Z,10.10
2017-05-05T19:05:22.457Z,10.00
2017-05-05T19:07:49.823Z,10.00
2017-05-05T19:10:17.260Z,10.10
2017-05-05T19:12:44.305Z,10.20
2017-05-05T19:15:11.368Z,10.20
2017-05-05T19:17:39.037Z,10.20
2017-05-05T19:20:06.055Z,10.20
2017-05-05T19:22:33.539Z,10.20
2017-05-05T19:25:01.332Z,10.10
2017-05-05T19:27:28.378Z,10.10
2017-05-05T19:29:55.409Z,10.10
2017-05-05T19:32:23.183Z,10.00
2017-05-05T19:34:50.701Z,10.10
2017-05-05T19:37:17.712Z,10.10
2017-05-05T19:39:44.695Z,10.10
2017-05-05T19:42:12.804Z,10.20
2017-05-05T19:44:41.084Z,10.20
2017-05-05T19:47:09.220Z,10.20
2017-05-05T19:49:36.232Z,10.10
2017-05-05T19:52:03.328Z,10.10
2017-05-05T19:54:30.381Z,10.10
2017-05-05T19:56:58.220Z,10.00
2017-05-05T19:59:25.608Z,10.10
2017-05-05T20:01:52.785Z,10.10
2017-05-05T20:04:19.841Z,10.10
2017-05-05T20:06:46.945Z,10.10
2017-05-05T20:09:13.972Z,10.10
2017-05-05T20:11:41.457Z,10.00
2017-05-05T20:14:09.884Z,10.10
2017-05-05T20:16:36.983Z,10.20
2017-05-05T20:19:04.035Z,10.10
2017-05-05T20:21:31.811Z,10.00
2017-05-05T20:23:59.229Z,10.10
2017-05-05T20:26:26.262Z,10.10
2017-05-05T20:28:53.310Z,10.00
2017-05-05T20:31:20.348Z,10.10
2017-05-05T20:33:47.456Z,10.00
2017-05-05T20:36:14.921Z,10.00
2017-05-05T20:38:42.664Z,10.00
2017-05-05T20:41:09.693Z,10.00
2017-05-05T20:43:36.716Z,10.00
2017-05-05T20:46:03.732Z,10.00
2017-05-05T20:48:31.920Z,9.90
2017-05-05T20:50:59.036Z,10.00
2017-05-05T20:53:26.087Z,10.10
2017-05-05T20:55:53.880Z,10.10
2017-05-05T20:58:28.577Z,10.10
2017-05-05T21:00:56.688Z,10.10
2017-05-05T21:03:23.763Z,10.00
2017-05-05T21:05:50.809Z,10.10
2017-05-05T21:08:17.873Z,10.00
2017-05-05T21:10:44.926Z,10.00
2017-05-05T21:13:12.265Z,10.00
2017-05-05T21:15:39.265Z,10.00
2017-05-05T21:18:07.005Z,9.90
2017-05-05T21:20:34.035Z,10.00
2017-05-05T21:23:01.045Z,9.90
2017-05-05T21:25:28.076Z,10.00
2017-05-05T21:27:55.823Z,10.00
2017-05-05T21:30:22.857Z,10.10
2017-05-05T21:32:51.021Z,9.90
2017-05-05T21:35:18.029Z,9.90
2017-05-05T21:37:45.423Z,9.90
2017-05-05T21:40:12.543Z,9.90
2017-05-05T21:42:39.643Z,10.00
2017-05-05T21:45:07.141Z,10.00
2017-05-05T21:47:34.222Z,9.90
2017-05-05T21:50:01.278Z,9.90
2017-05-05T21:52:28.303Z,9.80
2017-05-05T21:54:55.321Z,9.80
2017-05-05T21:57:23.453Z,9.80
2017-05-05T21:59:50.455Z,9.90
2017-05-05T22:02:17.566Z,9.90
2017-05-05T22:04:44.903Z,9.80
2017-05-05T22:07:11.905Z,9.80
2017-05-05T22:09:39.420Z,9.80
2017-05-05T22:12:06.460Z,9.90
2017-05-05T22:14:33.958Z,9.90
2017-05-05T22:17:01.025Z,9.80
2017-05-05T22:19:28.019Z,9.80
2017-05-05T22:21:55.457Z,9.90
2017-05-05T22:24:22.466Z,9.90
2017-05-05T22:26:49.503Z,10.00
2017-05-05T22:29:17.266Z,9.90
2017-05-05T22:31:44.261Z,9.90
2017-05-05T22:34:11.625Z,9.90
2017-05-05T22:36:38.645Z,9.90
2017-05-05T22:39:05.661Z,9.90
2017-05-05T22:41:33.428Z,9.80
2017-05-05T22:44:00.440Z,9.90
2017-05-05T22:46:27.481Z,9.80
2017-05-05T22:48:54.514Z,9.90
2017-05-05T22:51:21.881Z,9.90
2017-05-05T22:53:48.924Z,9.90
2017-05-05T22:56:15.966Z,9.80
2017-05-05T22:58:42.992Z,9.80
2017-05-05T23:01:10.000Z,9.80
2017-05-05T23:03:37.298Z,9.70
2017-05-05T23:06:04.314Z,9.80
2017-05-05T23:08:31.334Z,9.80
2017-05-05T23:10:58.391Z,9.80
2017-05-05T23:13:25.531Z,9.80
2017-05-05T23:15:52.847Z,9.80
2017-05-05T23:18:19.865Z,9.80
2017-05-05T23:20:47.629Z,9.80
2017-05-05T23:23:14.643Z,10.00
2017-05-05T23:25:41.625Z,10.00
2017-05-05T23:28:09.340Z,10.00
2017-05-05T23:30:36.284Z,10.10
2017-05-05T23:33:03.683Z,10.00
2017-05-05T23:35:30.727Z,10.00
2017-05-05T23:37:57.744Z,10.00
2017-05-05T23:40:24.793Z,10.10
2017-05-05T23:42:51.843Z,10.10
2017-05-05T23:45:19.209Z,9.90
2017-05-05T23:47:46.252Z,10.10
2017-05-05T23:50:13.267Z,10.00
2017-05-05T23:52:40.315Z,10.00
2017-05-05T23:55:07.343Z,10.10
2017-05-05T23:57:34.868Z,10.00
